N050SB LMML-HLLM
Flight info
| Callsign | N050SB |
|---|---|
| Flight time | N/A |
| Altitude | 27000 |
| Route | SUDIK T299 VARIG VARIG2B |
| Aircraft | SF50/L-SDGRWY/L |
Departure
| Time | 2026-05-05 12:23 |
|---|---|
| Airport | Malta International Airport (LMML) |
Arrival
| Time | N/A |
|---|---|
| Airport | Mitiga International Airport (HLLM) |
| Time | Latitude | Longitude | Altitude | Speed | Heading |
|---|---|---|---|---|---|
| 2026-05-05 12:05 | 35.85922 | 14.47697 | 266 ft | 0 kts | 88° |
| 2026-05-05 12:15 | 35.85922 | 14.47702 | 266 ft | 4 kts | 93° |
| 2026-05-05 12:16 | 35.85910 | 14.47737 | 266 ft | 0 kts | 135° |
| 2026-05-05 12:17 | 35.85899 | 14.47746 | 266 ft | 0 kts | 154° |
| 2026-05-05 12:19 | 35.85916 | 14.47812 | 266 ft | 15 kts | 67° |
| 2026-05-05 12:20 | 35.85957 | 14.47945 | 276 ft | 16 kts | 62° |
| 2026-05-05 12:20 | 35.86003 | 14.48053 | 267 ft | 12 kts | 68° |
| 2026-05-05 12:20 | 35.85997 | 14.48110 | 267 ft | 10 kts | 141° |
| 2026-05-05 12:20 | 35.85938 | 14.48148 | 274 ft | 11 kts | 167° |
| 2026-05-05 12:21 | 35.85831 | 14.48172 | 266 ft | 20 kts | 168° |
| 2026-05-05 12:21 | 35.85670 | 14.48201 | 266 ft | 23 kts | 173° |
| 2026-05-05 12:21 | 35.85540 | 14.48226 | 266 ft | 8 kts | 188° |
| 2026-05-05 12:21 | 35.85498 | 14.48209 | 266 ft | 8 kts | 190° |
| 2026-05-05 12:22 | 35.85431 | 14.48184 | 266 ft | 10 kts | 200° |
| 2026-05-05 12:22 | 35.85396 | 14.48184 | 266 ft | 0 kts | 137° |
| 2026-05-05 12:22 | 35.85383 | 14.48200 | 266 ft | 20 kts | 135° |
| 2026-05-05 12:22 | 35.85072 | 14.48583 | 302 ft | 100 kts | 136° |
| 2026-05-05 12:23 | 35.84535 | 14.49268 | 927 ft | 103 kts | 136° |
| 2026-05-05 12:23 | 35.84034 | 14.49933 | 1482 ft | 122 kts | 133° |
| 2026-05-05 12:23 | 35.83497 | 14.50858 | 1521 ft | 144 kts | 126° |
| 2026-05-05 12:23 | 35.82977 | 14.52025 | 1676 ft | 161 kts | 118° |
| 2026-05-05 12:24 | 35.82632 | 14.53335 | 1954 ft | 168 kts | 94° |
| 2026-05-05 12:24 | 35.83256 | 14.54540 | 2215 ft | 180 kts | 28° |
| 2026-05-05 12:24 | 35.84487 | 14.54576 | 2509 ft | 182 kts | 338° |
| 2026-05-05 12:24 | 35.85616 | 14.53882 | 2767 ft | 184 kts | 330° |
| 2026-05-05 12:25 | 35.86765 | 14.53185 | 2999 ft | 182 kts | 332° |
| 2026-05-05 12:25 | 35.87906 | 14.52531 | 3299 ft | 180 kts | 338° |
| 2026-05-05 12:25 | 35.89157 | 14.52549 | 3565 ft | 187 kts | 21° |
| 2026-05-05 12:25 | 35.90072 | 14.53607 | 3873 ft | 181 kts | 66° |
| 2026-05-05 12:26 | 35.90376 | 14.55097 | 4055 ft | 180 kts | 79° |
| 2026-05-05 12:26 | 35.90818 | 14.56549 | 4227 ft | 183 kts | 61° |
| 2026-05-05 12:26 | 35.91544 | 14.57827 | 4445 ft | 181 kts | 55° |
| 2026-05-05 12:26 | 35.92280 | 14.59084 | 4648 ft | 180 kts | 56° |
| 2026-05-05 12:27 | 35.92996 | 14.60355 | 4830 ft | 180 kts | 56° |
| 2026-05-05 12:27 | 35.93713 | 14.61623 | 5007 ft | 180 kts | 56° |
| 2026-05-05 12:27 | 35.94429 | 14.62890 | 5165 ft | 181 kts | 56° |
| 2026-05-05 12:27 | 35.95148 | 14.64163 | 5318 ft | 181 kts | 56° |
| 2026-05-05 12:28 | 35.95862 | 14.65440 | 5461 ft | 181 kts | 58° |
| 2026-05-05 12:28 | 35.96097 | 14.66928 | 5572 ft | 181 kts | 102° |
| 2026-05-05 12:28 | 35.95398 | 14.68170 | 5713 ft | 180 kts | 144° |
| 2026-05-05 12:28 | 35.94200 | 14.68513 | 5832 ft | 184 kts | 188° |
| 2026-05-05 12:29 | 35.92958 | 14.68107 | 6455 ft | 182 kts | 195° |
| 2026-05-05 12:29 | 35.91735 | 14.67707 | 7084 ft | 183 kts | 195° |
| 2026-05-05 12:29 | 35.90504 | 14.67302 | 7687 ft | 184 kts | 195° |
| 2026-05-05 12:29 | 35.89270 | 14.66892 | 8311 ft | 184 kts | 196° |
| 2026-05-05 12:30 | 35.88042 | 14.66483 | 8925 ft | 185 kts | 196° |
| 2026-05-05 12:30 | 35.86795 | 14.66066 | 9551 ft | 186 kts | 197° |
| 2026-05-05 12:30 | 35.85539 | 14.65644 | 10145 ft | 189 kts | 196° |
| 2026-05-05 12:30 | 35.84251 | 14.65216 | 10705 ft | 190 kts | 197° |
| 2026-05-05 12:31 | 35.82989 | 14.64798 | 11262 ft | 191 kts | 198° |
| 2026-05-05 12:31 | 35.81709 | 14.64372 | 11827 ft | 192 kts | 198° |
| 2026-05-05 12:31 | 35.80416 | 14.63940 | 12367 ft | 194 kts | 198° |
| 2026-05-05 12:31 | 35.79101 | 14.63505 | 12899 ft | 196 kts | 198° |
| 2026-05-05 12:32 | 35.77779 | 14.63065 | 13452 ft | 198 kts | 198° |
| 2026-05-05 12:32 | 35.76445 | 14.62622 | 13996 ft | 199 kts | 199° |
| 2026-05-05 12:32 | 35.75104 | 14.62176 | 14463 ft | 201 kts | 199° |
| 2026-05-05 12:32 | 35.73746 | 14.61725 | 14925 ft | 203 kts | 199° |
| 2026-05-05 12:33 | 35.72377 | 14.61268 | 15386 ft | 205 kts | 199° |
| 2026-05-05 12:33 | 35.70993 | 14.60810 | 15839 ft | 207 kts | 199° |
| 2026-05-05 12:33 | 35.69598 | 14.60350 | 16285 ft | 209 kts | 200° |
| 2026-05-05 12:33 | 35.68185 | 14.59882 | 16724 ft | 211 kts | 200° |
| 2026-05-05 12:34 | 35.66764 | 14.59410 | 17161 ft | 213 kts | 200° |
| 2026-05-05 12:34 | 35.65325 | 14.58936 | 17592 ft | 215 kts | 200° |
| 2026-05-05 12:34 | 35.64030 | 14.58506 | 17972 ft | 217 kts | 200° |
| 2026-05-05 12:34 | 35.62540 | 14.58009 | 18399 ft | 219 kts | 201° |
| 2026-05-05 12:35 | 35.61065 | 14.57524 | 18759 ft | 220 kts | 200° |
| 2026-05-05 12:35 | 35.59589 | 14.57035 | 19130 ft | 220 kts | 201° |
| 2026-05-05 12:35 | 35.58107 | 14.56544 | 19489 ft | 221 kts | 201° |
| 2026-05-05 12:35 | 35.56619 | 14.56052 | 19848 ft | 222 kts | 201° |
| 2026-05-05 12:36 | 35.55124 | 14.55557 | 20201 ft | 223 kts | 200° |
| 2026-05-05 12:36 | 35.53622 | 14.55062 | 20551 ft | 224 kts | 200° |
| 2026-05-05 12:36 | 35.52113 | 14.54562 | 20897 ft | 225 kts | 201° |
| 2026-05-05 12:36 | 35.50598 | 14.54065 | 21263 ft | 225 kts | 200° |
| 2026-05-05 12:37 | 35.49089 | 14.53569 | 21653 ft | 224 kts | 201° |
| 2026-05-05 12:37 | 35.47584 | 14.53072 | 22042 ft | 224 kts | 201° |
| 2026-05-05 12:37 | 35.46087 | 14.52580 | 22429 ft | 223 kts | 201° |
| 2026-05-05 12:37 | 35.44589 | 14.52086 | 22822 ft | 222 kts | 201° |
| 2026-05-05 12:38 | 35.43095 | 14.51596 | 23215 ft | 222 kts | 201° |
| 2026-05-05 12:38 | 35.41612 | 14.51107 | 23612 ft | 221 kts | 201° |
| 2026-05-05 12:38 | 35.40222 | 14.50434 | 23926 ft | 215 kts | 216° |
| 2026-05-05 12:38 | 35.38946 | 14.49457 | 24240 ft | 214 kts | 217° |
| 2026-05-05 12:39 | 35.37679 | 14.48540 | 24570 ft | 214 kts | 216° |
| 2026-05-05 12:39 | 35.36399 | 14.47608 | 24892 ft | 214 kts | 217° |
| 2026-05-05 12:39 | 35.35108 | 14.46659 | 25227 ft | 214 kts | 217° |
| 2026-05-05 12:39 | 35.33832 | 14.45722 | 25577 ft | 213 kts | 217° |
| 2026-05-05 12:40 | 35.32559 | 14.44787 | 25927 ft | 213 kts | 217° |
| 2026-05-05 12:40 | 35.31307 | 14.43872 | 26276 ft | 213 kts | 217° |
| 2026-05-05 12:40 | 35.30039 | 14.42942 | 26631 ft | 212 kts | 217° |
| 2026-05-05 12:40 | 35.28776 | 14.42018 | 26993 ft | 212 kts | 217° |
| 2026-05-05 12:41 | 35.27478 | 14.41063 | 27092 ft | 224 kts | 217° |
| 2026-05-05 12:41 | 35.26104 | 14.40054 | 27105 ft | 236 kts | 216° |
| 2026-05-05 12:41 | 35.24664 | 14.39005 | 27103 ft | 246 kts | 216° |
| 2026-05-05 12:41 | 35.23174 | 14.37914 | 27102 ft | 254 kts | 216° |
| 2026-05-05 12:42 | 35.21638 | 14.36791 | 27102 ft | 261 kts | 216° |
| 2026-05-05 12:42 | 35.20058 | 14.35636 | 27099 ft | 268 kts | 216° |
| 2026-05-05 12:42 | 35.18436 | 14.34451 | 27095 ft | 275 kts | 215° |
| 2026-05-05 12:42 | 35.16780 | 14.33242 | 27096 ft | 281 kts | 215° |
| 2026-05-05 12:43 | 35.15083 | 14.32005 | 27095 ft | 286 kts | 215° |
| 2026-05-05 12:43 | 35.13368 | 14.30754 | 27095 ft | 290 kts | 215° |
| 2026-05-05 12:43 | 35.11627 | 14.29486 | 27095 ft | 293 kts | 215° |
| 2026-05-05 12:43 | 35.09875 | 14.28212 | 27091 ft | 295 kts | 215° |
| 2026-05-05 12:44 | 35.08095 | 14.26915 | 27090 ft | 297 kts | 215° |
| 2026-05-05 12:44 | 35.06314 | 14.25619 | 27092 ft | 299 kts | 215° |
| 2026-05-05 12:44 | 35.04523 | 14.24318 | 27093 ft | 300 kts | 215° |
| 2026-05-05 12:44 | 35.02724 | 14.23010 | 27092 ft | 301 kts | 215° |
| 2026-05-05 12:45 | 35.00920 | 14.21699 | 27088 ft | 302 kts | 215° |
| 2026-05-05 12:45 | 34.99110 | 14.20385 | 27087 ft | 303 kts | 215° |
| 2026-05-05 12:45 | 34.97298 | 14.19067 | 27087 ft | 304 kts | 215° |
| 2026-05-05 12:45 | 34.95481 | 14.17750 | 27087 ft | 304 kts | 215° |
| 2026-05-05 12:46 | 34.93664 | 14.16432 | 27082 ft | 303 kts | 215° |
| 2026-05-05 12:46 | 34.91855 | 14.15120 | 27065 ft | 302 kts | 215° |
| 2026-05-05 12:46 | 34.90052 | 14.13814 | 27067 ft | 301 kts | 215° |
| 2026-05-05 12:46 | 34.88257 | 14.12514 | 27066 ft | 300 kts | 215° |
| 2026-05-05 12:47 | 34.86466 | 14.11220 | 27066 ft | 299 kts | 215° |
| 2026-05-05 12:47 | 34.84674 | 14.09924 | 27065 ft | 300 kts | 215° |
| 2026-05-05 12:47 | 34.82878 | 14.08624 | 27066 ft | 301 kts | 215° |
| 2026-05-05 12:47 | 34.81075 | 14.07324 | 27066 ft | 302 kts | 215° |
| 2026-05-05 12:48 | 34.79270 | 14.06019 | 27062 ft | 302 kts | 215° |
| 2026-05-05 12:48 | 34.77460 | 14.04714 | 27062 ft | 303 kts | 215° |
| 2026-05-05 12:48 | 34.75648 | 14.03407 | 27062 ft | 303 kts | 215° |
| 2026-05-05 12:48 | 34.73834 | 14.02097 | 27063 ft | 303 kts | 215° |
| 2026-05-05 12:49 | 34.72018 | 14.00789 | 27060 ft | 304 kts | 214° |
| 2026-05-05 12:49 | 34.70200 | 13.99480 | 27060 ft | 304 kts | 215° |
| 2026-05-05 12:49 | 34.68384 | 13.98171 | 27057 ft | 303 kts | 215° |
| 2026-05-05 12:49 | 34.66579 | 13.96873 | 27058 ft | 301 kts | 215° |
| 2026-05-05 12:50 | 34.64784 | 13.95581 | 27058 ft | 299 kts | 215° |
| 2026-05-05 12:50 | 34.62996 | 13.94296 | 27054 ft | 299 kts | 215° |
| 2026-05-05 12:50 | 34.61201 | 13.93008 | 27055 ft | 300 kts | 215° |
| 2026-05-05 12:50 | 34.59400 | 13.91715 | 27050 ft | 301 kts | 215° |
| 2026-05-05 12:51 | 34.57596 | 13.90421 | 27051 ft | 302 kts | 215° |
| 2026-05-05 12:51 | 34.55787 | 13.89124 | 27051 ft | 302 kts | 215° |
| 2026-05-05 12:51 | 34.53977 | 13.87826 | 27051 ft | 303 kts | 215° |
| 2026-05-05 12:51 | 34.52164 | 13.86527 | 27052 ft | 303 kts | 215° |
| 2026-05-05 12:52 | 34.50350 | 13.85226 | 27051 ft | 303 kts | 214° |
| 2026-05-05 12:52 | 34.48539 | 13.83931 | 27051 ft | 301 kts | 214° |
| 2026-05-05 12:52 | 34.46738 | 13.82642 | 27050 ft | 300 kts | 214° |
| 2026-05-05 12:52 | 34.44945 | 13.81358 | 27047 ft | 298 kts | 214° |
| 2026-05-05 12:53 | 34.43160 | 13.80084 | 27042 ft | 297 kts | 214° |
| 2026-05-05 12:53 | 34.41377 | 13.78808 | 27041 ft | 298 kts | 215° |
| 2026-05-05 12:53 | 34.39588 | 13.77529 | 27039 ft | 299 kts | 214° |
| 2026-05-05 12:53 | 34.37791 | 13.76251 | 27039 ft | 300 kts | 214° |
| 2026-05-05 12:54 | 34.34192 | 13.73683 | 27040 ft | 301 kts | 214° |
| 2026-05-05 12:54 | 34.32407 | 13.72367 | 27039 ft | 300 kts | 217° |
| 2026-05-05 12:54 | 34.30645 | 13.71014 | 27040 ft | 300 kts | 216° |
| 2026-05-05 12:55 | 34.28875 | 13.69668 | 27042 ft | 301 kts | 216° |
| 2026-05-05 12:55 | 34.27106 | 13.68318 | 27039 ft | 301 kts | 216° |
| 2026-05-05 12:55 | 34.25335 | 13.66965 | 27039 ft | 301 kts | 216° |
| 2026-05-05 12:55 | 34.23564 | 13.65616 | 27040 ft | 300 kts | 216° |
| 2026-05-05 12:56 | 34.21799 | 13.64271 | 27036 ft | 299 kts | 216° |
| 2026-05-05 12:56 | 34.20042 | 13.62933 | 27032 ft | 298 kts | 216° |
| 2026-05-05 12:56 | 34.18288 | 13.61596 | 27032 ft | 298 kts | 216° |
| 2026-05-05 12:56 | 34.16539 | 13.60264 | 27032 ft | 297 kts | 216° |
| 2026-05-05 12:57 | 34.14789 | 13.58936 | 27032 ft | 297 kts | 216° |
| 2026-05-05 12:57 | 34.13042 | 13.57609 | 27032 ft | 297 kts | 216° |
| 2026-05-05 12:57 | 34.11289 | 13.56275 | 27032 ft | 298 kts | 216° |
| 2026-05-05 12:57 | 34.09530 | 13.54942 | 27033 ft | 299 kts | 216° |
| 2026-05-05 12:58 | 34.07768 | 13.53605 | 27028 ft | 299 kts | 216° |
| 2026-05-05 12:58 | 34.06004 | 13.52266 | 27028 ft | 300 kts | 216° |
| 2026-05-05 12:58 | 34.04235 | 13.50927 | 27028 ft | 300 kts | 216° |
| 2026-05-05 12:58 | 34.02465 | 13.49583 | 27030 ft | 301 kts | 216° |
| 2026-05-05 12:59 | 34.00698 | 13.48244 | 27030 ft | 299 kts | 216° |